Terminal Aerodrome Forecast
Issued by NWS

Home | Current Version | Previous Version | Text Only | Print | Product List | Glossary On
Versions: 1 2 3 4 5 6 7 8 9 10 11 12 13 14 15 16 17 18 19 20
000
FTUS43 KDLH 190500
TAFHYR
TAF
KHYR 190538Z 1906/2006 21004KT P6SM OVC008
     FM190800 19004KT P6SM OVC012
     FM191200 VRB03KT P6SM OVC016
     FM191800 18004KT P6SM -SN OVC022=

USA.gov is the U.S. government's official web portal to all federal, state and local government web resources and services.